sensor_id;sensor_type;location;lat;lon;timestamp;temperature;humidity
5176;DHT22;2607;50.934;6.934;2023-04-03T00:00:30;5.70;99.90
5176;DHT22;2607;50.934;6.934;2023-04-03T00:02:56;5.70;99.90
5176;DHT22;2607;50.934;6.934;2023-04-03T00:05:22;5.60;99.90
5176;DHT22;2607;50.934;6.934;2023-04-03T00:07:48;5.50;99.90
5176;DHT22;2607;50.934;6.934;2023-04-03T00:10:15;5.50;99.90
5176;DHT22;2607;50.934;6.934;2023-04-03T00:12:41;5.50;99.90
5176;DHT22;2607;50.934;6.934;2023-04-03T00:15:07;5.50;99.90
5176;DHT22;2607;50.934;6.934;2023-04-03T00:17:33;5.40;99.90
5176;DHT22;2607;50.934;6.934;2023-04-03T00:19:58;5.40;99.90
5176;DHT22;2607;50.934;6.934;2023-04-03T00:22:24;5.40;99.90
5176;DHT22;2607;50.934;6.934;2023-04-03T00:24:51;5.40;99.90
5176;DHT22;2607;50.934;6.934;2023-04-03T00:27:17;5.40;99.90
5176;DHT22;2607;50.934;6.934;2023-04-03T00:29:43;5.40;99.90
5176;DHT22;2607;50.934;6.934;2023-04-03T00:32:08;5.40;99.90
5176;DHT22;2607;50.934;6.934;2023-04-03T00:34:34;5.40;99.90
5176;DHT22;2607;50.934;6.934;2023-04-03T00:36:59;5.40;99.90
5176;DHT22;2607;50.934;6.934;2023-04-03T00:39:25;5.40;99.90
5176;DHT22;2607;50.934;6.934;2023-04-03T00:41:50;5.30;99.90
5176;DHT22;2607;50.934;6.934;2023-04-03T00:46:54;5.30;99.90
5176;DHT22;2607;50.934;6.934;2023-04-03T00:49:19;5.20;99.90
5176;DHT22;2607;50.934;6.934;2023-04-03T00:51:45;5.20;99.90
5176;DHT22;2607;50.934;6.934;2023-04-03T00:54:11;5.20;99.90
5176;DHT22;2607;50.934;6.934;2023-04-03T00:56:37;5.20;99.90
5176;DHT22;2607;50.934;6.934;2023-04-03T00:59:13;5.10;99.90
5176;DHT22;2607;50.934;6.934;2023-04-03T01:01:40;5.10;99.90
5176;DHT22;2607;50.934;6.934;2023-04-03T01:04:26;5.10;99.90
5176;DHT22;2607;50.934;6.934;2023-04-03T01:06:54;5.10;99.90
5176;DHT22;2607;50.934;6.934;2023-04-03T01:09:21;5.10;99.90
5176;DHT22;2607;50.934;6.934;2023-04-03T01:11:47;5.00;99.90
5176;DHT22;2607;50.934;6.934;2023-04-03T01:14:13;5.00;99.90
5176;DHT22;2607;50.934;6.934;2023-04-03T01:16:38;5.00;99.90
5176;DHT22;2607;50.934;6.934;2023-04-03T01:19:08;5.00;99.90
5176;DHT22;2607;50.934;6.934;2023-04-03T01:24:50;5.00;99.90
5176;DHT22;2607;50.934;6.934;2023-04-03T01:27:18;5.00;99.90
5176;DHT22;2607;50.934;6.934;2023-04-03T01:29:44;5.00;99.90
5176;DHT22;2607;50.934;6.934;2023-04-03T01:32:10;5.00;99.90
5176;DHT22;2607;50.934;6.934;2023-04-03T01:34:36;4.90;99.90
5176;DHT22;2607;50.934;6.934;2023-04-03T01:37:01;5.00;99.90
5176;DHT22;2607;50.934;6.934;2023-04-03T01:39:27;4.90;99.90
5176;DHT22;2607;50.934;6.934;2023-04-03T01:41:53;5.00;99.90
5176;DHT22;2607;50.934;6.934;2023-04-03T01:44:18;4.90;99.90
5176;DHT22;2607;50.934;6.934;2023-04-03T01:46:44;4.90;99.90
5176;DHT22;2607;50.934;6.934;2023-04-03T01:49:10;5.00;99.90
5176;DHT22;2607;50.934;6.934;2023-04-03T01:51:35;5.00;99.90
5176;DHT22;2607;50.934;6.934;2023-04-03T01:54:01;5.00;99.90
5176;DHT22;2607;50.934;6.934;2023-04-03T01:56:27;5.00;99.90
5176;DHT22;2607;50.934;6.934;2023-04-03T01:58:52;5.00;99.90
5176;DHT22;2607;50.934;6.934;2023-04-03T02:01:18;5.00;99.90
5176;DHT22;2607;50.934;6.934;2023-04-03T02:03:43;5.00;99.90
5176;DHT22;2607;50.934;6.934;2023-04-03T02:06:09;5.00;99.90
5176;DHT22;2607;50.934;6.934;2023-04-03T02:08:34;4.90;99.90
5176;DHT22;2607;50.934;6.934;2023-04-03T02:11:00;4.90;99.90
5176;DHT22;2607;50.934;6.934;2023-04-03T02:13:26;4.90;99.90
5176;DHT22;2607;50.934;6.934;2023-04-03T02:15:51;4.90;99.90
5176;DHT22;2607;50.934;6.934;2023-04-03T02:18:17;4.80;99.90
5176;DHT22;2607;50.934;6.934;2023-04-03T02:20:42;4.80;99.90
5176;DHT22;2607;50.934;6.934;2023-04-03T02:23:08;4.80;99.90
5176;DHT22;2607;50.934;6.934;2023-04-03T02:25:34;4.70;99.90
5176;DHT22;2607;50.934;6.934;2023-04-03T02:28:00;4.70;99.90
5176;DHT22;2607;50.934;6.934;2023-04-03T02:30:25;4.60;99.90
5176;DHT22;2607;50.934;6.934;2023-04-03T02:32:51;4.60;99.90
5176;DHT22;2607;50.934;6.934;2023-04-03T02:35:17;4.60;99.90
5176;DHT22;2607;50.934;6.934;2023-04-03T02:37:43;4.50;99.90
5176;DHT22;2607;50.934;6.934;2023-04-03T02:40:09;4.50;99.90
5176;DHT22;2607;50.934;6.934;2023-04-03T02:42:34;4.50;99.90
5176;DHT22;2607;50.934;6.934;2023-04-03T02:45:00;4.50;99.90
5176;DHT22;2607;50.934;6.934;2023-04-03T02:47:27;4.50;99.90
5176;DHT22;2607;50.934;6.934;2023-04-03T02:49:52;4.50;99.90
5176;DHT22;2607;50.934;6.934;2023-04-03T02:52:18;4.50;99.90
5176;DHT22;2607;50.934;6.934;2023-04-03T02:54:44;4.50;99.90
5176;DHT22;2607;50.934;6.934;2023-04-03T02:57:10;4.40;99.90
5176;DHT22;2607;50.934;6.934;2023-04-03T02:59:36;4.40;99.90
5176;DHT22;2607;50.934;6.934;2023-04-03T03:02:02;4.40;99.90
5176;DHT22;2607;50.934;6.934;2023-04-03T03:04:28;4.40;99.90
5176;DHT22;2607;50.934;6.934;2023-04-03T03:06:53;4.30;99.90
5176;DHT22;2607;50.934;6.934;2023-04-03T03:09:19;4.30;99.90
5176;DHT22;2607;50.934;6.934;2023-04-03T03:11:44;4.20;99.90
5176;DHT22;2607;50.934;6.934;2023-04-03T03:14:10;4.20;99.90
5176;DHT22;2607;50.934;6.934;2023-04-03T03:16:36;4.10;99.90
5176;DHT22;2607;50.934;6.934;2023-04-03T03:19:02;4.20;99.90
5176;DHT22;2607;50.934;6.934;2023-04-03T03:21:27;4.10;99.90
5176;DHT22;2607;50.934;6.934;2023-04-03T03:23:53;4.20;99.90
5176;DHT22;2607;50.934;6.934;2023-04-03T03:26:18;4.10;99.90
5176;DHT22;2607;50.934;6.934;2023-04-03T03:28:44;4.10;99.90
5176;DHT22;2607;50.934;6.934;2023-04-03T03:31:10;4.10;99.90
5176;DHT22;2607;50.934;6.934;2023-04-03T03:33:36;4.10;99.90
5176;DHT22;2607;50.934;6.934;2023-04-03T03:36:02;4.10;99.90
5176;DHT22;2607;50.934;6.934;2023-04-03T03:38:28;4.00;99.90
5176;DHT22;2607;50.934;6.934;2023-04-03T03:40:53;4.00;99.90
5176;DHT22;2607;50.934;6.934;2023-04-03T03:43:19;4.00;99.90
5176;DHT22;2607;50.934;6.934;2023-04-03T03:45:49;4.00;99.90
5176;DHT22;2607;50.934;6.934;2023-04-03T03:48:15;4.00;99.90
5176;DHT22;2607;50.934;6.934;2023-04-03T03:50:41;4.00;99.90
5176;DHT22;2607;50.934;6.934;2023-04-03T03:53:06;4.00;99.90
5176;DHT22;2607;50.934;6.934;2023-04-03T03:55:32;4.00;99.90
5176;DHT22;2607;50.934;6.934;2023-04-03T03:57:57;4.00;99.90
5176;DHT22;2607;50.934;6.934;2023-04-03T04:00:23;4.00;99.90
5176;DHT22;2607;50.934;6.934;2023-04-03T04:02:48;4.00;99.90
5176;DHT22;2607;50.934;6.934;2023-04-03T04:05:14;4.00;99.90
5176;DHT22;2607;50.934;6.934;2023-04-03T04:07:40;4.00;99.90
5176;DHT22;2607;50.934;6.934;2023-04-03T04:10:05;4.00;99.90
5176;DHT22;2607;50.934;6.934;2023-04-03T04:12:31;4.00;99.90
5176;DHT22;2607;50.934;6.934;2023-04-03T04:14:57;4.00;99.90
5176;DHT22;2607;50.934;6.934;2023-04-03T04:17:22;4.00;99.90
5176;DHT22;2607;50.934;6.934;2023-04-03T04:19:48;4.00;99.90
5176;DHT22;2607;50.934;6.934;2023-04-03T04:22:13;4.00;99.90
5176;DHT22;2607;50.934;6.934;2023-04-03T04:24:39;4.00;99.90
5176;DHT22;2607;50.934;6.934;2023-04-03T04:27:04;4.00;99.90
5176;DHT22;2607;50.934;6.934;2023-04-03T04:29:30;4.00;99.90
5176;DHT22;2607;50.934;6.934;2023-04-03T04:32:00;4.00;99.90
5176;DHT22;2607;50.934;6.934;2023-04-03T04:34:26;4.00;99.90
5176;DHT22;2607;50.934;6.934;2023-04-03T04:36:51;3.90;99.90
5176;DHT22;2607;50.934;6.934;2023-04-03T04:39:17;3.90;99.90
5176;DHT22;2607;50.934;6.934;2023-04-03T04:41:42;3.90;99.90
5176;DHT22;2607;50.934;6.934;2023-04-03T04:44:08;3.90;99.90
5176;DHT22;2607;50.934;6.934;2023-04-03T04:46:33;3.90;99.90
5176;DHT22;2607;50.934;6.934;2023-04-03T04:48:59;3.90;99.90
5176;DHT22;2607;50.934;6.934;2023-04-03T04:51:25;3.90;99.90
5176;DHT22;2607;50.934;6.934;2023-04-03T04:53:50;3.80;99.90
5176;DHT22;2607;50.934;6.934;2023-04-03T04:56:16;3.80;99.90
5176;DHT22;2607;50.934;6.934;2023-04-03T04:58:42;3.80;99.90
5176;DHT22;2607;50.934;6.934;2023-04-03T05:01:09;3.80;99.90
5176;DHT22;2607;50.934;6.934;2023-04-03T05:03:35;3.80;99.90
5176;DHT22;2607;50.934;6.934;2023-04-03T05:06:01;3.80;99.90
5176;DHT22;2607;50.934;6.934;2023-04-03T05:08:27;3.80;99.90
5176;DHT22;2607;50.934;6.934;2023-04-03T05:10:53;3.80;99.90
5176;DHT22;2607;50.934;6.934;2023-04-03T05:13:19;3.80;99.90
5176;DHT22;2607;50.934;6.934;2023-04-03T05:15:45;3.90;99.90
5176;DHT22;2607;50.934;6.934;2023-04-03T05:18:11;3.90;99.90
5176;DHT22;2607;50.934;6.934;2023-04-03T05:20:36;3.90;99.90
5176;DHT22;2607;50.934;6.934;2023-04-03T05:23:02;3.90;99.90
5176;DHT22;2607;50.934;6.934;2023-04-03T05:25:28;3.90;99.90
5176;DHT22;2607;50.934;6.934;2023-04-03T05:27:53;3.90;99.90
5176;DHT22;2607;50.934;6.934;2023-04-03T05:30:19;3.90;99.90
5176;DHT22;2607;50.934;6.934;2023-04-03T05:32:44;3.90;99.90
5176;DHT22;2607;50.934;6.934;2023-04-03T05:35:10;3.90;99.90
5176;DHT22;2607;50.934;6.934;2023-04-03T05:37:36;3.90;99.90
5176;DHT22;2607;50.934;6.934;2023-04-03T05:40:03;3.90;99.90
5176;DHT22;2607;50.934;6.934;2023-04-03T05:42:28;3.90;99.90
5176;DHT22;2607;50.934;6.934;2023-04-03T05:44:55;3.90;99.90
5176;DHT22;2607;50.934;6.934;2023-04-03T05:47:20;3.90;99.90
5176;DHT22;2607;50.934;6.934;2023-04-03T05:49:46;3.90;99.90
5176;DHT22;2607;50.934;6.934;2023-04-03T05:52:31;3.90;99.90
5176;DHT22;2607;50.934;6.934;2023-04-03T05:54:58;3.90;99.90
5176;DHT22;2607;50.934;6.934;2023-04-03T05:57:23;4.00;99.90
5176;DHT22;2607;50.934;6.934;2023-04-03T05:59:49;3.90;99.90
5176;DHT22;2607;50.934;6.934;2023-04-03T06:02:20;4.00;99.90
5176;DHT22;2607;50.934;6.934;2023-04-03T06:04:46;4.00;99.90
5176;DHT22;2607;50.934;6.934;2023-04-03T06:07:18;4.00;99.90
5176;DHT22;2607;50.934;6.934;2023-04-03T06:09:47;4.00;99.90
5176;DHT22;2607;50.934;6.934;2023-04-03T06:12:12;4.00;99.90
5176;DHT22;2607;50.934;6.934;2023-04-03T06:14:38;4.00;99.90
5176;DHT22;2607;50.934;6.934;2023-04-03T06:17:04;4.00;99.90
5176;DHT22;2607;50.934;6.934;2023-04-03T06:19:30;4.00;99.90
5176;DHT22;2607;50.934;6.934;2023-04-03T06:21:55;4.00;99.90
5176;DHT22;2607;50.934;6.934;2023-04-03T06:24:21;4.00;99.90
5176;DHT22;2607;50.934;6.934;2023-04-03T06:26:49;4.00;99.90
5176;DHT22;2607;50.934;6.934;2023-04-03T06:29:16;4.00;99.90
5176;DHT22;2607;50.934;6.934;2023-04-03T06:31:43;4.00;99.90
5176;DHT22;2607;50.934;6.934;2023-04-03T06:34:09;4.10;99.90
5176;DHT22;2607;50.934;6.934;2023-04-03T06:36:34;4.10;99.90
5176;DHT22;2607;50.934;6.934;2023-04-03T06:39:00;4.10;99.90
5176;DHT22;2607;50.934;6.934;2023-04-03T06:41:26;4.10;99.90
5176;DHT22;2607;50.934;6.934;2023-04-03T06:43:52;4.20;99.90
5176;DHT22;2607;50.934;6.934;2023-04-03T06:46:20;4.20;99.90
5176;DHT22;2607;50.934;6.934;2023-04-03T06:48:46;4.20;99.90
5176;DHT22;2607;50.934;6.934;2023-04-03T06:51:23;4.30;99.90
5176;DHT22;2607;50.934;6.934;2023-04-03T06:53:50;4.30;99.90
5176;DHT22;2607;50.934;6.934;2023-04-03T06:56:17;4.30;99.90
5176;DHT22;2607;50.934;6.934;2023-04-03T06:58:43;4.30;99.90
5176;DHT22;2607;50.934;6.934;2023-04-03T07:01:13;4.30;99.90
5176;DHT22;2607;50.934;6.934;2023-04-03T07:03:40;4.40;99.90
5176;DHT22;2607;50.934;6.934;2023-04-03T07:06:06;4.40;99.90
5176;DHT22;2607;50.934;6.934;2023-04-03T07:08:33;4.40;99.90
5176;DHT22;2607;50.934;6.934;2023-04-03T07:10:59;4.40;99.90
5176;DHT22;2607;50.934;6.934;2023-04-03T07:13:25;4.40;99.90
5176;DHT22;2607;50.934;6.934;2023-04-03T07:15:51;4.40;99.90
5176;DHT22;2607;50.934;6.934;2023-04-03T07:18:17;4.50;99.90
5176;DHT22;2607;50.934;6.934;2023-04-03T07:20:43;4.50;99.90
5176;DHT22;2607;50.934;6.934;2023-04-03T07:23:09;4.50;99.90
5176;DHT22;2607;50.934;6.934;2023-04-03T07:25:34;4.50;99.90
5176;DHT22;2607;50.934;6.934;2023-04-03T07:28:00;4.60;99.90
5176;DHT22;2607;50.934;6.934;2023-04-03T07:30:26;4.60;99.90
5176;DHT22;2607;50.934;6.934;2023-04-03T07:32:52;4.70;99.90
5176;DHT22;2607;50.934;6.934;2023-04-03T07:35:18;4.70;99.90
5176;DHT22;2607;50.934;6.934;2023-04-03T07:37:43;4.70;99.90
5176;DHT22;2607;50.934;6.934;2023-04-03T07:40:09;4.70;99.90
5176;DHT22;2607;50.934;6.934;2023-04-03T07:42:35;4.80;99.90
5176;DHT22;2607;50.934;6.934;2023-04-03T07:45:05;4.80;99.90
5176;DHT22;2607;50.934;6.934;2023-04-03T07:47:31;4.90;99.90
5176;DHT22;2607;50.934;6.934;2023-04-03T07:49:57;4.90;99.60
5176;DHT22;2607;50.934;6.934;2023-04-03T07:52:23;4.90;99.30
5176;DHT22;2607;50.934;6.934;2023-04-03T07:54:49;4.90;99.40
5176;DHT22;2607;50.934;6.934;2023-04-03T07:57:14;5.00;99.20
5176;DHT22;2607;50.934;6.934;2023-04-03T07:59:40;5.00;98.90
5176;DHT22;2607;50.934;6.934;2023-04-03T08:02:09;5.00;99.00
5176;DHT22;2607;50.934;6.934;2023-04-03T08:04:35;5.00;98.80
5176;DHT22;2607;50.934;6.934;2023-04-03T08:07:01;5.00;98.70
5176;DHT22;2607;50.934;6.934;2023-04-03T08:09:26;5.10;98.40
5176;DHT22;2607;50.934;6.934;2023-04-03T08:11:52;5.10;98.40
5176;DHT22;2607;50.934;6.934;2023-04-03T08:14:19;5.10;98.60
5176;DHT22;2607;50.934;6.934;2023-04-03T08:16:47;5.10;98.70
5176;DHT22;2607;50.934;6.934;2023-04-03T08:19:13;5.20;98.70
5176;DHT22;2607;50.934;6.934;2023-04-03T08:21:41;5.30;97.60
5176;DHT22;2607;50.934;6.934;2023-04-03T08:24:07;5.30;98.00
5176;DHT22;2607;50.934;6.934;2023-04-03T08:26:33;5.30;97.80
5176;DHT22;2607;50.934;6.934;2023-04-03T08:28:59;5.30;97.70
5176;DHT22;2607;50.934;6.934;2023-04-03T08:31:25;5.30;97.70
5176;DHT22;2607;50.934;6.934;2023-04-03T08:33:51;5.40;97.90
5176;DHT22;2607;50.934;6.934;2023-04-03T08:36:28;5.40;97.90
5176;DHT22;2607;50.934;6.934;2023-04-03T08:38:55;5.50;97.50
5176;DHT22;2607;50.934;6.934;2023-04-03T08:41:33;5.60;96.70
5176;DHT22;2607;50.934;6.934;2023-04-03T08:44:42;5.60;96.10
5176;DHT22;2607;50.934;6.934;2023-04-03T08:47:21;5.60;95.50
5176;DHT22;2607;50.934;6.934;2023-04-03T08:49:53;5.70;95.20
5176;DHT22;2607;50.934;6.934;2023-04-03T08:52:36;5.70;94.60
5176;DHT22;2607;50.934;6.934;2023-04-03T08:58:02;5.70;94.40
5176;DHT22;2607;50.934;6.934;2023-04-03T09:00:37;5.80;94.30
5176;DHT22;2607;50.934;6.934;2023-04-03T09:03:04;5.80;94.10
5176;DHT22;2607;50.934;6.934;2023-04-03T09:05:41;5.90;93.90
5176;DHT22;2607;50.934;6.934;2023-04-03T09:08:22;5.90;94.10
5176;DHT22;2607;50.934;6.934;2023-04-03T09:10:50;5.90;94.10
5176;DHT22;2607;50.934;6.934;2023-04-03T09:13:40;6.00;93.70
5176;DHT22;2607;50.934;6.934;2023-04-03T09:16:27;6.00;93.40
5176;DHT22;2607;50.934;6.934;2023-04-03T09:21:48;6.10;92.60
5176;DHT22;2607;50.934;6.934;2023-04-03T09:24:15;6.10;92.50
5176;DHT22;2607;50.934;6.934;2023-04-03T09:27:01;6.20;92.70
5176;DHT22;2607;50.934;6.934;2023-04-03T09:29:29;6.20;92.50
5176;DHT22;2607;50.934;6.934;2023-04-03T09:32:01;6.20;92.10
5176;DHT22;2607;50.934;6.934;2023-04-03T09:34:32;6.30;92.20
5176;DHT22;2607;50.934;6.934;2023-04-03T09:37:05;6.40;92.30
5176;DHT22;2607;50.934;6.934;2023-04-03T09:39:53;6.40;92.00
5176;DHT22;2607;50.934;6.934;2023-04-03T09:42:22;6.50;92.00
5176;DHT22;2607;50.934;6.934;2023-04-03T09:47:27;6.60;91.10
5176;DHT22;2607;50.934;6.934;2023-04-03T09:52:38;6.70;90.00
5176;DHT22;2607;50.934;6.934;2023-04-03T09:55:13;6.70;89.50
5176;DHT22;2607;50.934;6.934;2023-04-03T09:57:39;6.80;89.60
5176;DHT22;2607;50.934;6.934;2023-04-03T10:00:05;6.80;87.90
5176;DHT22;2607;50.934;6.934;2023-04-03T10:02:35;6.90;86.60
5176;DHT22;2607;50.934;6.934;2023-04-03T10:05:02;6.90;85.90
5176;DHT22;2607;50.934;6.934;2023-04-03T10:10:03;7.00;82.70
5176;DHT22;2607;50.934;6.934;2023-04-03T10:12:29;7.00;81.90
5176;DHT22;2607;50.934;6.934;2023-04-03T10:14:59;7.10;80.40
5176;DHT22;2607;50.934;6.934;2023-04-03T10:23:12;7.20;77.90
5176;DHT22;2607;50.934;6.934;2023-04-03T10:26:09;7.20;78.20
5176;DHT22;2607;50.934;6.934;2023-04-03T10:28:53;7.30;78.10
5176;DHT22;2607;50.934;6.934;2023-04-03T10:34:05;7.30;77.00
5176;DHT22;2607;50.934;6.934;2023-04-03T10:36:57;7.40;76.40
5176;DHT22;2607;50.934;6.934;2023-04-03T10:42:35;7.60;75.70
5176;DHT22;2607;50.934;6.934;2023-04-03T10:48:16;7.70;73.40
5176;DHT22;2607;50.934;6.934;2023-04-03T10:51:15;7.80;73.50
5176;DHT22;2607;50.934;6.934;2023-04-03T10:56:41;7.90;70.70
5176;DHT22;2607;50.934;6.934;2023-04-03T11:01:46;8.10;69.70
5176;DHT22;2607;50.934;6.934;2023-04-03T11:04:16;8.20;69.30
5176;DHT22;2607;50.934;6.934;2023-04-03T11:06:47;8.20;68.00
5176;DHT22;2607;50.934;6.934;2023-04-03T11:10:03;8.30;67.50
5176;DHT22;2607;50.934;6.934;2023-04-03T11:12:23;8.40;66.40
5176;DHT22;2607;50.934;6.934;2023-04-03T11:14:51;8.40;65.40
5176;DHT22;2607;50.934;6.934;2023-04-03T11:22:48;8.70;63.50
5176;DHT22;2607;50.934;6.934;2023-04-03T11:25:24;8.80;63.80
5176;DHT22;2607;50.934;6.934;2023-04-03T11:28:05;8.80;63.30
5176;DHT22;2607;50.934;6.934;2023-04-03T11:30:53;8.90;63.30
5176;DHT22;2607;50.934;6.934;2023-04-03T11:35:49;9.10;62.90
5176;DHT22;2607;50.934;6.934;2023-04-03T11:38:25;9.20;62.60
5176;DHT22;2607;50.934;6.934;2023-04-03T11:40:53;9.30;63.20
5176;DHT22;2607;50.934;6.934;2023-04-03T11:43:30;9.40;61.60
5176;DHT22;2607;50.934;6.934;2023-04-03T11:46:00;9.50;60.90
5176;DHT22;2607;50.934;6.934;2023-04-03T11:53:39;9.80;60.20
5176;DHT22;2607;50.934;6.934;2023-04-03T12:01:46;10.00;58.10
5176;DHT22;2607;50.934;6.934;2023-04-03T12:04:13;10.10;58.20
5176;DHT22;2607;50.934;6.934;2023-04-03T12:12:34;10.20;57.00
5176;DHT22;2607;50.934;6.934;2023-04-03T12:15:23;10.20;57.10
5176;DHT22;2607;50.934;6.934;2023-04-03T12:17:49;10.30;57.00
5176;DHT22;2607;50.934;6.934;2023-04-03T12:20:53;10.30;56.50
5176;DHT22;2607;50.934;6.934;2023-04-03T12:23:35;10.30;55.60
5176;DHT22;2607;50.934;6.934;2023-04-03T12:26:19;10.30;54.60
5176;DHT22;2607;50.934;6.934;2023-04-03T12:28:48;10.20;53.80
5176;DHT22;2607;50.934;6.934;2023-04-03T12:31:16;10.20;53.40
5176;DHT22;2607;50.934;6.934;2023-04-03T12:34:09;10.20;53.50
5176;DHT22;2607;50.934;6.934;2023-04-03T12:44:56;10.20;53.40
5176;DHT22;2607;50.934;6.934;2023-04-03T12:47:31;10.20;53.80
5176;DHT22;2607;50.934;6.934;2023-04-03T12:49:59;10.20;53.60
5176;DHT22;2607;50.934;6.934;2023-04-03T12:52:30;10.20;54.30
5176;DHT22;2607;50.934;6.934;2023-04-03T12:54:59;10.10;54.50
5176;DHT22;2607;50.934;6.934;2023-04-03T12:57:26;10.10;54.50
5176;DHT22;2607;50.934;6.934;2023-04-03T12:59:53;10.10;54.60
5176;DHT22;2607;50.934;6.934;2023-04-03T13:02:30;10.10;55.00
5176;DHT22;2607;50.934;6.934;2023-04-03T13:04:58;10.20;54.00
5176;DHT22;2607;50.934;6.934;2023-04-03T13:07:26;10.10;53.40
5176;DHT22;2607;50.934;6.934;2023-04-03T13:10:03;10.10;54.00
5176;DHT22;2607;50.934;6.934;2023-04-03T13:12:30;10.10;54.30
5176;DHT22;2607;50.934;6.934;2023-04-03T13:14:58;10.10;53.30
5176;DHT22;2607;50.934;6.934;2023-04-03T13:17:25;10.10;52.70
5176;DHT22;2607;50.934;6.934;2023-04-03T13:19:51;10.20;50.80
5176;DHT22;2607;50.934;6.934;2023-04-03T13:24:50;10.00;51.90
5176;DHT22;2607;50.934;6.934;2023-04-03T13:27:16;10.00;51.40
5176;DHT22;2607;50.934;6.934;2023-04-03T13:29:42;10.00;51.40
5176;DHT22;2607;50.934;6.934;2023-04-03T13:32:25;9.90;53.50
5176;DHT22;2607;50.934;6.934;2023-04-03T13:34:51;9.90;53.30
5176;DHT22;2607;50.934;6.934;2023-04-03T13:37:52;10.00;51.20
5176;DHT22;2607;50.934;6.934;2023-04-03T13:40:18;10.00;50.00
5176;DHT22;2607;50.934;6.934;2023-04-03T13:42:44;10.00;50.90
5176;DHT22;2607;50.934;6.934;2023-04-03T13:47:46;10.10;51.10
5176;DHT22;2607;50.934;6.934;2023-04-03T13:50:20;10.00;51.90
5176;DHT22;2607;50.934;6.934;2023-04-03T13:52:55;10.00;51.70
5176;DHT22;2607;50.934;6.934;2023-04-03T13:55:30;10.00;52.70
5176;DHT22;2607;50.934;6.934;2023-04-03T14:00:52;9.90;53.30
5176;DHT22;2607;50.934;6.934;2023-04-03T14:03:45;9.90;53.80
5176;DHT22;2607;50.934;6.934;2023-04-03T14:06:16;9.90;54.50
5176;DHT22;2607;50.934;6.934;2023-04-03T14:08:44;10.10;52.90
5176;DHT22;2607;50.934;6.934;2023-04-03T14:11:16;10.00;52.50
5176;DHT22;2607;50.934;6.934;2023-04-03T14:13:43;10.00;52.50
5176;DHT22;2607;50.934;6.934;2023-04-03T14:16:14;10.00;52.90
5176;DHT22;2607;50.934;6.934;2023-04-03T14:18:42;10.00;53.10
5176;DHT22;2607;50.934;6.934;2023-04-03T14:21:11;10.00;53.40
5176;DHT22;2607;50.934;6.934;2023-04-03T14:23:36;10.00;53.90
5176;DHT22;2607;50.934;6.934;2023-04-03T14:26:02;10.00;54.40
5176;DHT22;2607;50.934;6.934;2023-04-03T14:28:29;10.00;54.80
5176;DHT22;2607;50.934;6.934;2023-04-03T14:30:54;10.00;54.90
5176;DHT22;2607;50.934;6.934;2023-04-03T14:33:21;10.00;55.00
5176;DHT22;2607;50.934;6.934;2023-04-03T14:35:47;10.00;55.50
5176;DHT22;2607;50.934;6.934;2023-04-03T14:38:26;10.00;55.60
5176;DHT22;2607;50.934;6.934;2023-04-03T14:40:53;10.00;56.10
5176;DHT22;2607;50.934;6.934;2023-04-03T14:43:19;10.00;56.60
5176;DHT22;2607;50.934;6.934;2023-04-03T14:45:46;10.10;55.40
5176;DHT22;2607;50.934;6.934;2023-04-03T14:48:18;10.10;55.30
5176;DHT22;2607;50.934;6.934;2023-04-03T14:50:44;10.20;55.00
5176;DHT22;2607;50.934;6.934;2023-04-03T14:53:12;10.00;55.20
5176;DHT22;2607;50.934;6.934;2023-04-03T14:55:41;10.00;56.10
5176;DHT22;2607;50.934;6.934;2023-04-03T14:58:15;10.00;56.50
5176;DHT22;2607;50.934;6.934;2023-04-03T15:00:41;10.00;56.40
5176;DHT22;2607;50.934;6.934;2023-04-03T15:03:12;9.90;56.60
5176;DHT22;2607;50.934;6.934;2023-04-03T15:05:38;10.00;55.20
5176;DHT22;2607;50.934;6.934;2023-04-03T15:08:03;9.90;56.10
5176;DHT22;2607;50.934;6.934;2023-04-03T15:10:30;9.90;56.50
5176;DHT22;2607;50.934;6.934;2023-04-03T15:12:57;9.90;55.80
5176;DHT22;2607;50.934;6.934;2023-04-03T15:15:24;9.90;56.00
5176;DHT22;2607;50.934;6.934;2023-04-03T15:17:52;9.80;56.40
5176;DHT22;2607;50.934;6.934;2023-04-03T15:20:24;9.80;56.60
5176;DHT22;2607;50.934;6.934;2023-04-03T15:22:50;9.80;56.40
5176;DHT22;2607;50.934;6.934;2023-04-03T15:25:16;9.80;56.20
5176;DHT22;2607;50.934;6.934;2023-04-03T15:27:42;9.70;56.50
5176;DHT22;2607;50.934;6.934;2023-04-03T15:30:13;9.70;56.60
5176;DHT22;2607;50.934;6.934;2023-04-03T15:32:40;9.70;57.00
5176;DHT22;2607;50.934;6.934;2023-04-03T15:35:06;9.70;56.60
5176;DHT22;2607;50.934;6.934;2023-04-03T15:37:32;9.70;56.90
5176;DHT22;2607;50.934;6.934;2023-04-03T15:39:57;9.70;57.10
5176;DHT22;2607;50.934;6.934;2023-04-03T15:42:23;9.60;57.30
5176;DHT22;2607;50.934;6.934;2023-04-03T15:44:49;9.60;58.30
5176;DHT22;2607;50.934;6.934;2023-04-03T15:47:14;9.60;57.30
5176;DHT22;2607;50.934;6.934;2023-04-03T15:49:40;9.60;57.10
5176;DHT22;2607;50.934;6.934;2023-04-03T15:52:06;9.60;57.40
5176;DHT22;2607;50.934;6.934;2023-04-03T15:54:31;9.60;57.30
5176;DHT22;2607;50.934;6.934;2023-04-03T15:56:57;9.50;57.20
5176;DHT22;2607;50.934;6.934;2023-04-03T15:59:23;9.50;56.80
5176;DHT22;2607;50.934;6.934;2023-04-03T16:01:49;9.50;56.60
5176;DHT22;2607;50.934;6.934;2023-04-03T16:04:16;9.50;56.80
5176;DHT22;2607;50.934;6.934;2023-04-03T16:06:42;9.50;56.70
5176;DHT22;2607;50.934;6.934;2023-04-03T16:09:08;9.40;56.60
5176;DHT22;2607;50.934;6.934;2023-04-03T16:11:34;9.40;57.00
5176;DHT22;2607;50.934;6.934;2023-04-03T16:14:08;9.40;57.20
5176;DHT22;2607;50.934;6.934;2023-04-03T16:16:35;9.40;58.00
5176;DHT22;2607;50.934;6.934;2023-04-03T16:19:01;9.40;58.40
5176;DHT22;2607;50.934;6.934;2023-04-03T16:21:27;9.40;58.70
5176;DHT22;2607;50.934;6.934;2023-04-03T16:23:53;9.40;58.70
5176;DHT22;2607;50.934;6.934;2023-04-03T16:26:18;9.40;58.60
5176;DHT22;2607;50.934;6.934;2023-04-03T16:28:45;9.40;58.70
5176;DHT22;2607;50.934;6.934;2023-04-03T16:31:11;9.40;59.00
5176;DHT22;2607;50.934;6.934;2023-04-03T16:33:36;9.40;59.40
5176;DHT22;2607;50.934;6.934;2023-04-03T16:36:04;9.30;60.00
5176;DHT22;2607;50.934;6.934;2023-04-03T16:38:30;9.40;59.60
5176;DHT22;2607;50.934;6.934;2023-04-03T16:40:55;9.30;59.70
5176;DHT22;2607;50.934;6.934;2023-04-03T16:43:27;9.30;59.20
5176;DHT22;2607;50.934;6.934;2023-04-03T16:45:53;9.30;58.80
5176;DHT22;2607;50.934;6.934;2023-04-03T16:48:19;9.30;59.10
5176;DHT22;2607;50.934;6.934;2023-04-03T16:50:48;9.30;59.70
5176;DHT22;2607;50.934;6.934;2023-04-03T16:53:14;9.30;60.50
5176;DHT22;2607;50.934;6.934;2023-04-03T16:55:40;9.30;61.00
5176;DHT22;2607;50.934;6.934;2023-04-03T16:58:06;9.20;61.10
5176;DHT22;2607;50.934;6.934;2023-04-03T17:00:32;9.20;61.80
5176;DHT22;2607;50.934;6.934;2023-04-03T17:02:59;9.20;62.30
5176;DHT22;2607;50.934;6.934;2023-04-03T17:05:25;9.20;62.90
5176;DHT22;2607;50.934;6.934;2023-04-03T17:07:50;9.10;62.90
5176;DHT22;2607;50.934;6.934;2023-04-03T17:10:16;9.10;63.30
5176;DHT22;2607;50.934;6.934;2023-04-03T17:12:42;9.10;63.60
5176;DHT22;2607;50.934;6.934;2023-04-03T17:15:08;9.00;63.80
5176;DHT22;2607;50.934;6.934;2023-04-03T17:17:34;9.00;63.50
5176;DHT22;2607;50.934;6.934;2023-04-03T17:19:59;9.00;63.80
5176;DHT22;2607;50.934;6.934;2023-04-03T17:22:25;9.00;63.30
5176;DHT22;2607;50.934;6.934;2023-04-03T17:24:51;9.00;62.70
5176;DHT22;2607;50.934;6.934;2023-04-03T17:27:17;9.00;62.90
5176;DHT22;2607;50.934;6.934;2023-04-03T17:29:42;8.90;62.80
5176;DHT22;2607;50.934;6.934;2023-04-03T17:32:08;9.00;62.80
5176;DHT22;2607;50.934;6.934;2023-04-03T17:34:33;9.00;62.50
5176;DHT22;2607;50.934;6.934;2023-04-03T17:37:01;8.90;61.70
5176;DHT22;2607;50.934;6.934;2023-04-03T17:39:26;8.90;62.00
5176;DHT22;2607;50.934;6.934;2023-04-03T17:41:52;8.80;62.80